Tiempo atmosférico en la estación meteorológica de Alosno, Huelva (276 m.)



Fecha
DESCASC
Temp. máxima en grados centígrados (hora)
DESCASC
Temp. mínima en grados centígrados (hora)
DESCASC
Temp. media en grados centígrados
DESCASC
Racha de viento máxima en m/sg (hora)
DESCASC
Velocidad máxima media en intervalos de 10 minutos(hora)
DESCASC
Precipitaciones diarias en mm
DESCASC
Precipitaciones de 00:00 a 06:00 en mm
DESCASC
Precipitaciones de 06:00 a 12:00 en mm
DESCASC
Precipitaciones de 12:00 a 18:00 en mm
DESCASC
Precipitaciones de 18:00 a 24:00 en mm
DESCASC

Gráficas

Temp. máximas Temp. mínimas Temp. medias Precipitaciones Rachas de viento máximas Velocidades máximas media en intervalos de 10 minutos

Datos horarios

Fecha y hora oficial Temperatura (ºC) Velocidad del viento (km/h) Dirección del viento Racha (km/h) Dirección de racha Precipitación (mm) Presión (hPa) Tendencia (hPa) Humedad (%)
2019-12-15 23:00:00 11.7 18 Sudeste 33 Sur 1 -- -- 100
2019-12-15 22:00:00 11.5 15 Sur 28 Sudeste 1.2 -- -- 100
2019-12-15 21:00:00 11.5 9 Sur 29 Sudeste 1.6 -- -- 100
2019-12-15 20:00:00 11.4 15 Sur 28 Sur 0.2 -- -- 100
2019-12-15 19:00:00 11.4 16 Sur 30 Sur 0.4 -- -- 100
2019-12-15 18:00:00 11.7 16 Sur 31 Sudeste 0.6 -- -- 99
2019-12-15 17:00:00 12.1 17 Sur 27 Sudeste 0 -- -- 97
2019-12-15 16:00:00 12.7 16 Sur 24 Sur 0.2 -- -- 96
2019-12-15 15:00:00 12.6 18 Sur 26 Sur 0 -- -- 94
2019-12-15 14:00:00 13.2 17 Sur 26 Sudeste 0 -- -- 86
2019-12-15 13:00:00 12.6 21 Sur 30 Sur 0 -- -- 90
2019-12-15 12:00:00 13.7 14 Sur 22 Sur 0 -- -- 82
2019-12-15 11:00:00 12.9 10 Sur 16 Sur 0 -- -- 88
2019-12-15 10:00:00 12.1 8 Sudeste 17 Sudeste 0 -- -- 91
2019-12-15 09:00:00 11.6 10 Sudeste 15 Sudeste 0 -- -- 94
2019-12-15 08:00:00 11.8 7 Sur 12 Sur 0 -- -- 91
2019-12-15 07:00:00 11.6 3 Sur 5 Sur 0 -- -- 92
2019-12-15 06:00:00 11.4 4 Sudoeste 9 Sudoeste 0 -- -- 97
2019-12-15 05:00:00 11.5 2 Sur 5 Sudoeste 0 -- -- 95
2019-12-15 04:00:00 11.6 0 Calma 4 Sur 0 -- -- 93
2019-12-15 03:00:00 11.7 0 Calma 4 Este 0 -- -- 93
2019-12-15 02:00:00 11.9 0 Calma 3 Norte 0 -- -- 91
2019-12-15 01:00:00 12.3 0 Calma 5 Sur 0 -- -- 89
2019-12-15 00:00:00 12.8 0 Calma 6 Oeste 0 -- -- 85
2019-12-14 23:00:00 12.7 0 Calma 8 Oeste 0 -- -- 87
2019-12-14 22:00:00 12.7 4 Sudoeste 11 Sur 0 -- -- 87
2019-12-14 21:00:00 12.7 4 Sudoeste 9 Sudoeste 0 -- -- 88
2019-12-14 20:00:00 12.8 6 Sudoeste 12 Sudoeste 0 -- -- 88
2019-12-14 19:00:00 13.3 9 Sudoeste 14 Sur 0 -- -- 85
2019-12-14 18:00:00 14.2 2 Oeste 10 Noroeste 0 -- -- 77
2019-12-14 17:00:00 14.6 4 Oeste 11 Noroeste 0 -- -- 75
2019-12-14 16:00:00 14.6 4 Noroeste 15 Oeste 0 -- -- 77
2019-12-14 15:00:00 14.2 9 Noroeste 20 Noroeste 0 -- -- 77
2019-12-14 14:00:00 14.3 10 Noroeste 19 Noroeste 0 -- -- 78
2019-12-14 13:00:00 13.6 6 Noroeste 15 Noroeste 0 -- -- 85
2019-12-14 12:00:00 12.7 5 Noroeste 10 Noroeste 0 -- -- 89
2019-12-14 11:00:00 11.8 6 Sudoeste 13 Noroeste 0 -- -- 99
2019-12-14 10:00:00 11 6 Noroeste 14 Oeste 0 -- -- 100
2019-12-14 09:00:00 10.3 4 Oeste 10 Oeste 0 -- -- 100
2019-12-14 08:00:00 10.2 5 Oeste 10 Oeste 0 -- -- 100
2019-12-14 07:00:00 10.1 6 Noroeste 10 Oeste 0 -- -- 100
2019-12-14 06:00:00 10.2 6 Noroeste 10 Oeste 0 -- -- 100
2019-12-14 05:00:00 10.2 6 Noroeste 19 Noroeste 0 -- -- 100
2019-12-14 04:00:00 10.3 10 Noroeste 17 Noroeste 0 -- -- 99
2019-12-14 03:00:00 10.6 9 Noroeste 14 Oeste 0 -- -- 97
2019-12-14 02:00:00 11.7 10 Noroeste 22 Oeste 0 -- -- 95
2019-12-14 01:00:00 12.1 11 Oeste 17 Oeste 0 -- -- 95
2019-12-14 00:00:00 12.4 9 Noroeste 22 Noroeste 0 -- -- 94
2019-12-13 23:00:00 12.6 12 Noroeste 19 Oeste 0 -- -- 92
2019-12-13 22:00:00 12.6 12 Noroeste 21 Noroeste 0 -- -- 92
2019-12-13 21:00:00 13.4 12 Oeste 20 Oeste 0 -- -- 90
2019-12-13 20:00:00 13.9 9 Noroeste 19 Noroeste 0 -- -- 85
2019-12-13 19:00:00 14.3 10 Noroeste 22 Oeste 0 -- -- 83
2019-12-13 18:00:00 14.7 12 Noroeste 26 Noroeste 0 -- -- 80
2019-12-13 17:00:00 15.1 17 Noroeste 30 Noroeste 0 -- -- 78
2019-12-13 16:00:00 15.3 13 Noroeste 28 Noroeste 0 -- -- 80
2019-12-13 15:00:00 15 16 Noroeste 35 Noroeste 0 -- -- 81
2019-12-13 14:00:00 14.4 22 Noroeste 33 Noroeste 0 -- -- 83
2019-12-13 13:00:00 14.5 22 Noroeste 44 Noroeste 0 -- -- 84
2019-12-13 12:00:00 13.9 23 Noroeste 39 Noroeste 0 -- -- 87
2019-12-13 11:00:00 13.3 22 Noroeste 34 Noroeste 0 -- -- 91
2019-12-13 10:00:00 12.5 21 Noroeste 38 Noroeste 0 -- -- 95
2019-12-13 09:00:00 11.9 21 Noroeste 33 Noroeste 0 -- -- 96
2019-12-13 08:00:00 12.1 17 Noroeste 36 Norte 0 -- -- 94
2019-12-13 07:00:00 12.5 20 Noroeste 36 Noroeste 0 -- -- 93
2019-12-13 06:00:00 12.9 22 Noroeste 33 Noroeste 0 -- -- 93
2019-12-13 05:00:00 13 21 Noroeste 37 Noroeste 0 -- -- 93
2019-12-13 04:00:00 13 21 Noroeste 44 Oeste 0 -- -- 94
2019-12-13 03:00:00 13 23 Oeste 37 Oeste 0 -- -- 97
2019-12-13 02:00:00 12.9 22 Oeste 41 Oeste 0 -- -- 96
2019-12-13 01:00:00 12.8 22 Oeste 36 Noroeste 0 -- -- 95
2019-12-13 00:00:00 12.5 19 Oeste 33 Oeste 0 -- -- 95
2019-12-12 23:00:00 12.5 18 Oeste 32 Oeste 0 -- -- 92
2019-12-12 22:00:00 12.2 16 Oeste 32 Oeste 0 -- -- 93
2019-12-12 21:00:00 12.3 18 Oeste 39 Oeste 0 -- -- 89
2019-12-12 20:00:00 12.7 20 Oeste 36 Oeste 0 -- -- 85
2019-12-12 19:00:00 12.9 22 Noroeste 33 Noroeste 0 -- -- 81
2019-12-12 18:00:00 13 19 Noroeste 40 Oeste 0 -- -- 80
2019-12-12 17:00:00 13.5 24 Noroeste 41 Oeste 0 -- -- 73
2019-12-12 16:00:00 13.8 24 Noroeste 41 Oeste 0 -- -- 70
2019-12-12 15:00:00 14.2 24 Oeste 40 Noroeste 0 -- -- 71
2019-12-12 14:00:00 14.2 22 Noroeste 39 Noroeste 0 -- -- 64
2019-12-12 13:00:00 12.9 18 Noroeste 32 Noroeste 0 -- -- 75
2019-12-12 12:00:00 11.4 19 Noroeste 31 Noroeste 0 -- -- 83
2019-12-12 11:00:00 9.7 15 Noroeste 26 Noroeste 0 -- -- 89
2019-12-12 10:00:00 6.5 13 Noroeste 20 Noroeste 0 -- -- 97
2019-12-12 09:00:00 5.1 13 Noroeste 22 Noroeste 0 -- -- 98
2019-12-12 08:00:00 4.6 13 Noroeste 21 Noroeste 0 -- -- 97
2019-12-12 07:00:00 4.6 13 Noroeste 18 Noroeste 0 -- -- 97
2019-12-12 06:00:00 5 10 Noroeste 14 Noroeste 0 -- -- 95
2019-12-12 05:00:00 4.6 10 Noroeste 14 Noroeste 0 -- -- 94
2019-12-12 04:00:00 4.9 10 Noroeste 15 Noroeste 0 -- -- 92
2019-12-12 03:00:00 4.7 9 Noroeste 17 Noroeste 0 -- -- 91
2019-12-12 02:00:00 5.6 11 Noroeste 19 Noroeste 0 -- -- 88
2019-12-12 01:00:00 6 14 Noroeste 23 Noroeste 0 -- -- 86
2019-12-12 00:00:00 6.1 14 Noroeste 22 Noroeste 0 -- -- 84
2019-12-11 23:00:00 6.9 9 Noroeste 20 Noroeste 0 -- -- 80
2019-12-11 22:00:00 7.9 10 Noroeste 26 Noroeste 0 -- -- 76
2019-12-11 21:00:00 8.8 18 Noroeste 30 Noroeste 0 -- -- 72
2019-12-11 20:00:00 9.5 11 Noroeste 20 Noroeste 0 -- -- 69
2019-12-11 19:00:00 10.6 10 Noroeste 31 Norte 0 -- -- 68
2019-12-11 18:00:00 12.2 17 Norte 36 Noroeste 0 -- -- 65
2019-12-11 17:00:00 13.4 25 Norte 40 Noroeste 0 -- -- 61
2019-12-11 16:00:00 14 23 Norte 42 Noroeste 0 -- -- 58
2019-12-11 15:00:00 14.1 25 Noroeste 39 Noroeste 0 -- -- 62
2019-12-11 14:00:00 11.9 13 Noroeste 33 Noroeste 0 -- -- 93
2019-12-11 13:00:00 10.6 18 Noroeste 27 Noroeste 0 -- -- 100
2019-12-11 12:00:00 9.8 10 Noroeste 16 Noroeste 0 -- -- 100
2019-12-11 11:00:00 9 9 Noroeste 22 Noroeste 0 -- -- 100
2019-12-11 10:00:00 6.8 14 Noroeste 25 Noroeste 0 -- -- 100
2019-12-11 09:00:00 5.7 19 Noroeste 27 Noroeste 0 -- -- 100
2019-12-11 08:00:00 5.6 14 Noroeste 24 Noroeste 0 -- -- 100
2019-12-11 07:00:00 6.7 12 Noroeste 19 Noroeste 0 -- -- 98
2019-12-11 06:00:00 6.9 13 Noroeste 18 Noroeste 0 -- -- 97
2019-12-11 05:00:00 7 11 Noroeste 19 Noroeste 0 -- -- 96
2019-12-11 04:00:00 7.7 12 Noroeste 22 Norte 0 -- -- 94
2019-12-11 03:00:00 9.5 15 Noroeste 24 Noroeste 0 -- -- 86
2019-12-11 02:00:00 7.9 13 Noroeste 21 Noroeste 0 -- -- 91
2019-12-11 01:00:00 7.9 15 Noroeste 21 Noroeste 0 -- -- 93
2019-12-11 00:00:00 9.1 13 Noroeste 17 Noroeste 0 -- -- 89
2019-12-10 23:00:00 9.6 11 Noroeste 22 Noroeste 0 -- -- 84
2019-12-10 22:00:00 8.9 14 Noroeste 21 Noroeste 0 -- -- 94
2019-12-10 21:00:00 9.9 10 Noroeste 17 Noroeste 0 -- -- 89
2019-12-10 20:00:00 11.2 5 Oeste 15 Noroeste 0 -- -- 84
2019-12-10 19:00:00 12.5 13 Noroeste 17 Noroeste 0 -- -- 80
2019-12-10 18:00:00 14.9 12 Noroeste 17 Noroeste 0 -- -- 70
2019-12-10 17:00:00 16.5 9 Noroeste 18 Noroeste 0 -- -- 49
2019-12-10 16:00:00 16.8 10 Noroeste 16 Noroeste 0 -- -- 46
2019-12-10 15:00:00 17.7 8 Noroeste 12 Noroeste 0 -- -- 48
2019-12-10 14:00:00 17.3 3 Noroeste 11 Noroeste 0 -- -- 52
2019-12-10 13:00:00 16.8 5 Noroeste 7 Noroeste 0 -- -- 52
2019-12-10 12:00:00 14.6 2 Este 5 Este 0 -- -- 56
2019-12-10 11:00:00 11.9 2 Nordeste 4 Este 0 -- -- 71
2019-12-10 10:00:00 8.9 3 Oeste 6 Noroeste 0 -- -- 85
2019-12-10 09:00:00 7.1 3 Oeste 8 Oeste 0 -- -- 89
2019-12-10 08:00:00 7.3 4 Noroeste 9 Noroeste 0 -- -- 86
2019-12-10 07:00:00 7 4 Sudoeste 9 Oeste 0 -- -- 89
2019-12-10 06:00:00 8.3 4 Oeste 6 Oeste 0 -- -- 78
2019-12-10 05:00:00 9.3 5 Noroeste 8 Oeste 0 -- -- 67
2019-12-10 04:00:00 9 4 Oeste 17 Norte 0 -- -- 77
2019-12-10 03:00:00 10.2 11 Norte 18 Norte 0 -- -- 69
2019-12-10 02:00:00 8.4 7 Noroeste 12 Norte 0 -- -- 87
2019-12-10 01:00:00 9.6 9 Noroeste 16 Noroeste 0 -- -- 83
2019-12-10 00:00:00 11.2 9 Norte 13 Norte 0 -- -- 74
2019-12-09 23:00:00 11.9 5 Norte 15 Noroeste 0 -- -- 76
2019-12-09 22:00:00 11.5 9 Noroeste 15 Noroeste 0 -- -- 83
2019-12-09 21:00:00 12.4 5 Norte 13 Noroeste 0 -- -- 80
2019-12-09 20:00:00 12.7 9 Noroeste 14 Noroeste 0 -- -- 81
2019-12-09 19:00:00 13.7 8 Noroeste 12 Noroeste 0 -- -- 77
2019-12-09 18:00:00 15.5 8 Noroeste 19 Noroeste 0 -- -- 73
2019-12-09 17:00:00 17.2 10 Noroeste 19 Noroeste 0 -- -- 66
2019-12-09 16:00:00 17.6 9 Norte 16 Noroeste 0 -- -- 67
2019-12-09 15:00:00 17.4 8 Norte 18 Noroeste 0 -- -- 67
2019-12-09 14:00:00 16.4 8 Norte 15 Noroeste 0 -- -- 77
2019-12-09 13:00:00 15.6 7 Noroeste 13 Noroeste 0 -- -- 81
2019-12-09 12:00:00 15.3 8 Norte 14 Norte 0 -- -- 82
2019-12-09 11:00:00 14.4 4 Norte 8 Noroeste 0 -- -- 100
2019-12-09 10:00:00 13.4 3 Noroeste 9 Noroeste 0 -- -- 100
2019-12-09 09:00:00 13.2 5 Noroeste 11 Noroeste 0 -- -- 100
2019-12-09 08:00:00 13.2 7 Noroeste 13 Noroeste 0 -- -- 100
2019-12-09 07:00:00 13.2 8 Noroeste 18 Norte 0 -- -- 100
2019-12-09 06:00:00 13.2 10 Noroeste 15 Noroeste 0 -- -- 100
2019-12-09 05:00:00 13.1 9 Norte 15 Noroeste 0 -- -- 100
2019-12-09 04:00:00 13.1 7 Noroeste 14 Noroeste 0 -- -- 100
2019-12-09 03:00:00 13.1 6 Norte 13 Noroeste 0 -- -- 100
2019-12-09 02:00:00 12.9 6 Noroeste 14 Noroeste 0 -- -- 100
2019-12-09 01:00:00 12.9 5 Noroeste 13 Oeste 0 -- -- 99
2019-12-09 00:00:00 12.5 6 Noroeste 18 Noroeste 0 -- -- 98
2019-12-08 23:00:00 12.7 10 Noroeste 18 Noroeste 0 -- -- 97
2019-12-08 22:00:00 12.7 8 Noroeste 15 Noroeste 0 -- -- 95
2019-12-08 21:00:00 13.3 7 Noroeste 12 Noroeste 0 -- -- 91
2019-12-08 20:00:00 14 9 Noroeste 15 Noroeste 0 -- -- 89
2019-12-08 19:00:00 14.5 9 Noroeste 18 Noroeste 0 -- -- 86
2019-12-08 18:00:00 15.1 8 Norte 18 Noroeste 0 -- -- 82
2019-12-08 17:00:00 15.9 12 Noroeste 23 Noroeste 0 -- -- 78
2019-12-08 16:00:00 17.2 13 Noroeste 24 Noroeste 0 -- -- 73
2019-12-08 15:00:00 16.7 14 Noroeste 26 Noroeste 0 -- -- 72
2019-12-08 14:00:00 16.1 13 Noroeste 22 Noroeste 0 -- -- 65
2019-12-08 13:00:00 15.1 8 Noroeste 17 Noroeste 0 -- -- 70
2019-12-08 12:00:00 13.1 9 Noroeste 15 Noroeste 0 -- -- 81
2019-12-08 11:00:00 11.5 3 Oeste 6 Sudoeste 0 -- -- 87
2019-12-08 10:00:00 8.4 6 Oeste 15 Noroeste 0 -- -- 95
2019-12-08 09:00:00 7.3 10 Noroeste 13 Noroeste 0 -- -- 96
2019-12-08 08:00:00 7.5 3 Sudoeste 14 Noroeste 0 -- -- 95
2019-12-08 07:00:00 7.3 7 Oeste 13 Oeste 0 -- -- 95
2019-12-08 06:00:00 7.5 9 Noroeste 13 Oeste 0 -- -- 94
2019-12-08 05:00:00 7.8 8 Oeste 12 Oeste 0 -- -- 94
2019-12-08 04:00:00 8 5 Oeste 12 Noroeste 0 -- -- 93
2019-12-08 03:00:00 8 8 Noroeste 18 Noroeste 0 -- -- 94
2019-12-08 02:00:00 8.7 13 Noroeste 18 Noroeste 0 -- -- 90
2019-12-08 01:00:00 9.3 6 Noroeste 17 Noroeste 0 -- -- 88
2019-12-08 00:00:00 9.6 7 Oeste 12 Oeste 0 -- -- 86
2019-12-07 23:00:00 10.4 6 Oeste 11 Noroeste 0 -- -- 83
2019-12-07 22:00:00 11.1 3 Noroeste 12 Noroeste 0 -- -- 80
2019-12-07 21:00:00 11.3 8 Noroeste 10 Noroeste 0 -- -- 79
2019-12-07 20:00:00 12 8 Noroeste 14 Noroeste 0 -- -- 76
2019-12-07 19:00:00 13 8 Noroeste 15 Noroeste 0 -- -- 72
2019-12-07 18:00:00 15.5 8 Noroeste 15 Noroeste 0 -- -- 64
2019-12-07 17:00:00 17.3 7 Norte 19 Noroeste 0 -- -- 56
2019-12-07 16:00:00 17.5 10 Norte 19 Norte 0 -- -- 57
2019-12-07 15:00:00 16.8 13 Noroeste 22 Noroeste 0 -- -- 61
2019-12-07 14:00:00 16 13 Noroeste 22 Noroeste 0 -- -- 63
2019-12-07 13:00:00 14.9 12 Noroeste 17 Noroeste 0 -- -- 69
2019-12-07 12:00:00 15.6 3 Noroeste 10 Sur 0 -- -- 67
2019-12-07 11:00:00 14.9 4 Sudoeste 6 Sur 0 -- -- 68
2019-12-07 10:00:00 9.8 3 Sudoeste 9 Oeste 0 -- -- 88
2019-12-07 09:00:00 9.2 2 Noroeste 5 Noroeste 0 -- -- 83
2019-12-07 08:00:00 8.9 0 Calma 8 Noroeste 0 -- -- 85
2019-12-07 07:00:00 9.1 0 Calma 5 Noroeste 0 -- -- 84
2019-12-07 06:00:00 9.2 3 Norte 6 Nordeste 0 -- -- 82
2019-12-07 05:00:00 10.1 6 Este 10 Este 0 -- -- 79
2019-12-07 04:00:00 10.5 8 Este 10 Este 0 -- -- 80
2019-12-07 03:00:00 10.6 8 Este 10 Este 0 -- -- 80
2019-12-07 02:00:00 10.5 3 Norte 6 Noroeste 0 -- -- 79
2019-12-07 01:00:00 11.1 2 Nordeste 10 Norte 0 -- -- 78
2019-12-07 00:00:00 11.3 7 Norte 8 Norte 0 -- -- 77
2019-12-06 23:00:00 12.6 3 Nordeste 6 Nordeste 0 -- -- 73
2019-12-06 22:00:00 12.9 2 Nordeste 7 Nordeste 0 -- -- 72
2019-12-06 21:00:00 12.9 6 Este 11 Este 0 -- -- 74
2019-12-06 20:00:00 13.6 6 Norte 13 Noroeste 0 -- -- 73
2019-12-06 19:00:00 14.8 8 Noroeste 13 Noroeste 0 -- -- 66
2019-12-06 18:00:00 16.7 9 Noroeste 15 Noroeste 0 -- -- 60
2019-12-06 17:00:00 18.4 8 Noroeste 15 Noroeste 0 -- -- 54
2019-12-06 16:00:00 18.9 7 Noroeste 14 Noroeste 0 -- -- 50
2019-12-06 15:00:00 18.8 5 Nordeste 13 Nordeste 0 -- -- 48
2019-12-06 14:00:00 18 6 Nordeste 15 Este 0 -- -- 51
2019-12-06 13:00:00 16.6 6 Nordeste 15 Nordeste 0 -- -- 55
2019-12-06 12:00:00 15.2 6 Nordeste 15 Nordeste 0 -- -- 59
2019-12-06 11:00:00 13.2 11 Nordeste 17 Nordeste 0 -- -- 65
2019-12-06 10:00:00 12 9 Este 14 Este 0 -- -- 70
2019-12-06 09:00:00 8.9 4 Noroeste 7 Noroeste 0 -- -- 82
2019-12-06 08:00:00 8.6 3 Noroeste 6 Norte 0 -- -- 83
2019-12-06 07:00:00 7.2 3 Oeste 11 Noroeste 0 -- -- 90
2019-12-06 06:00:00 7.4 7 Noroeste 15 Noroeste 0 -- -- 88
2019-12-06 05:00:00 9.9 6 Norte 11 Nordeste 0 -- -- 78
2019-12-06 04:00:00 10 7 Nordeste 13 Nordeste 0 -- -- 78
2019-12-06 03:00:00 9.9 5 Este 13 Nordeste 0 -- -- 79
2019-12-06 02:00:00 10.3 9 Este 18 Nordeste 0 -- -- 79
2019-12-06 01:00:00 10.3 12 Nordeste 17 Nordeste 0 -- -- 78
2019-12-06 00:00:00 10.3 8 Nordeste 11 Nordeste 0 -- -- 77
2019-12-05 23:00:00 10.8 7 Nordeste 14 Nordeste 0 -- -- 74
2019-12-05 22:00:00 11.1 9 Nordeste 19 Nordeste 0 -- -- 73
2019-12-05 21:00:00 11.3 12 Nordeste 17 Nordeste 0 -- -- 71
2019-12-05 20:00:00 12.2 8 Nordeste 27 Este 0 -- -- 67
2019-12-05 19:00:00 13.5 17 Nordeste 38 Este 0 -- -- 62
2019-12-05 18:00:00 14.7 21 Este 32 Este 0 -- -- 60
2019-12-05 17:00:00 15.5 16 Este 27 Este 0 -- -- 58
2019-12-05 16:00:00 16.6 17 Este 29 Este 0 -- -- 54
2019-12-05 15:00:00 16.2 16 Este 32 Este 0 -- -- 56
2019-12-05 14:00:00 15.8 13 Este 24 Nordeste 0 -- -- 59
2019-12-05 13:00:00 14.6 13 Nordeste 23 Este 0 -- -- 66
2019-12-05 12:00:00 13.2 12 Nordeste 26 Este 0 -- -- 72
2019-12-05 11:00:00 11.7 6 Nordeste 10 Nordeste 0 -- -- 79
2019-12-05 10:00:00 9.8 5 Nordeste 9 Nordeste 0 -- -- 87
2019-12-05 09:00:00 7.7 5 Norte 8 Nordeste 0 -- -- 91
2019-12-05 08:00:00 7.4 0 Calma 9 Norte 0 -- -- 93
2019-12-05 07:00:00 8 4 Nordeste 8 Nordeste 0 -- -- 91
2019-12-05 06:00:00 7.7 4 Norte 10 Norte 0 -- -- 91
2019-12-05 05:00:00 7.7 2 Oeste 8 Norte 0 -- -- 91
2019-12-05 04:00:00 7.5 0 Calma 5 Norte 0 -- -- 92
2019-12-05 03:00:00 7 0 Calma 9 Norte 0 -- -- 95
2019-12-05 02:00:00 6.7 6 Noroeste 10 Noroeste 0 -- -- 97
2019-12-05 01:00:00 6.8 3 Noroeste 12 Noroeste 0 -- -- 98
2019-12-05 00:00:00 7.2 9 Noroeste 14 Noroeste 0 -- -- 96
2019-12-04 23:00:00 7.5 4 Noroeste 15 Noroeste 0 -- -- 95
2019-12-04 22:00:00 8.2 11 Noroeste 18 Noroeste 0 -- -- 93
2019-12-04 21:00:00 8.4 9 Noroeste 14 Noroeste 0 -- -- 91
2019-12-04 20:00:00 8.8 10 Noroeste 14 Noroeste 0 -- -- 88
2019-12-04 19:00:00 9.3 9 Noroeste 14 Noroeste 0 -- -- 83
2019-12-04 18:00:00 10.8 7 Noroeste 15 Oeste 0 -- -- 76
2019-12-04 17:00:00 11.8 12 Noroeste 15 Noroeste 0 -- -- 70
2019-12-04 16:00:00 11.6 10 Noroeste 18 Noroeste 0 -- -- 71
2019-12-04 15:00:00 11.7 15 Noroeste 25 Oeste 0 -- -- 70
2019-12-04 14:00:00 11.1 13 Noroeste 21 Noroeste 0 -- -- 74
2019-12-04 13:00:00 10.5 12 Noroeste 22 Noroeste 0 -- -- 76
2019-12-04 12:00:00 8.4 13 Noroeste 23 Noroeste 0 -- -- 87
2019-12-04 11:00:00 6.6 14 Noroeste 22 Noroeste 0 -- -- 94
2019-12-04 10:00:00 5.6 12 Noroeste 19 Oeste 0 -- -- 98
2019-12-04 09:00:00 4.9 9 Noroeste 20 Oeste 0 -- -- 98
2019-12-04 08:00:00 5.2 12 Noroeste 16 Noroeste 0 -- -- 97
2019-12-04 07:00:00 5.6 9 Oeste 18 Noroeste 0 -- -- 98
2019-12-04 06:00:00 6.3 14 Noroeste 22 Oeste 0 -- -- 97
2019-12-04 05:00:00 7.1 14 Noroeste 19 Noroeste 0 -- -- 93
2019-12-04 04:00:00 7.7 8 Noroeste 15 Noroeste 0 -- -- 92
2019-12-04 03:00:00 8.4 9 Noroeste 15 Noroeste 0 -- -- 89
2019-12-04 02:00:00 8.5 9 Noroeste 13 Noroeste 0 -- -- 88
2019-12-04 01:00:00 8.7 3 Oeste 14 Noroeste 0 -- -- 88
2019-12-04 00:00:00 8.9 9 Noroeste 13 Noroeste 0 -- -- 87
2019-12-03 23:00:00 9.1 6 Noroeste 11 Noroeste 0 -- -- 87
2019-12-03 22:00:00 9.7 7 Noroeste 11 Noroeste 0 -- -- 85
2019-12-03 21:00:00 10.9 5 Noroeste 14 Norte 0 -- -- 80
2019-12-03 20:00:00 12.1 9 Norte 15 Norte 0 -- -- 75
2019-12-03 19:00:00 12.9 9 Norte 15 Norte 0 -- -- 72
2019-12-03 18:00:00 14.2 9 Norte 22 Nordeste 0 -- -- 67
2019-12-03 17:00:00 15.8 12 Norte 19 Norte 0 -- -- 62
2019-12-03 16:00:00 16.2 11 Noroeste 19 Noroeste 0 -- -- 62
2019-12-03 15:00:00 16.1 7 Noroeste 20 Noroeste 0 -- -- 63
2019-12-03 14:00:00 15.7 6 Nordeste 15 Noroeste 0 -- -- 62
2019-12-03 13:00:00 14.5 6 Norte 13 Norte 0 -- -- 70
2019-12-03 12:00:00 13.2 4 Nordeste 9 Nordeste 0 -- -- 71
2019-12-03 11:00:00 10.7 4 Noroeste 13 Noroeste 0 -- -- 85
2019-12-03 10:00:00 9.1 7 Norte 14 Noroeste 0 -- -- 86
2019-12-03 09:00:00 6.7 7 Noroeste 14 Noroeste 0 -- -- 95
2019-12-03 08:00:00 7.6 6 Norte 10 Norte 0 -- -- 91
2019-12-03 07:00:00 7.5 5 Noroeste 10 Norte 0 -- -- 92
2019-12-03 06:00:00 7.8 5 Noroeste 9 Noroeste 0 -- -- 90
2019-12-03 05:00:00 9.3 4 Nordeste 10 Norte 0 -- -- 85
2019-12-03 04:00:00 8.8 7 Norte 12 Norte 0 -- -- 88
2019-12-03 03:00:00 9.2 8 Norte 13 Nordeste 0 -- -- 86
2019-12-03 02:00:00 9.9 9 Nordeste 18 Nordeste 0 -- -- 84
2019-12-03 01:00:00 10 9 Nordeste 18 Nordeste 0 -- -- 84
2019-12-03 00:00:00 10 9 Nordeste 18 Este 0 -- -- 84
2019-12-02 23:00:00 10.2 10 Este 20 Este 0 -- -- 84
2019-12-02 22:00:00 9.6 7 Nordeste 13 Nordeste 0 -- -- 87
2019-12-02 21:00:00 10.2 8 Nordeste 18 Nordeste 0 -- -- 87
2019-12-02 20:00:00 10.7 9 Nordeste 13 Nordeste 0 -- -- 92
2019-12-02 19:00:00 11.2 10 Nordeste 25 Nordeste 0.4 -- -- 89
2019-12-02 18:00:00 12.1 13 Nordeste 37 Este 0.2 -- -- 82
2019-12-02 17:00:00 12.7 17 Nordeste 32 Nordeste 0 -- -- 77
2019-12-02 16:00:00 12 13 Nordeste 27 Nordeste 0 -- -- 86
2019-12-02 15:00:00 11.7 15 Nordeste 30 Nordeste 0.8 -- -- 86
2019-12-02 14:00:00 12.7 19 Nordeste 32 Este 0 -- -- 75
2019-12-02 13:00:00 12.5 17 Nordeste 32 Nordeste 0 -- -- 76
2019-12-02 12:00:00 11.8 16 Nordeste 24 Nordeste 0 -- -- 81
2019-12-02 11:00:00 10.7 11 Nordeste 19 Nordeste 0 -- -- 85
2019-12-02 10:00:00 10.8 9 Nordeste 14 Norte 0 -- -- 89
2019-12-02 09:00:00 8.4 7 Norte 15 Norte 0 -- -- 95
2019-12-02 08:00:00 8.7 9 Norte 20 Norte 0 -- -- 94
2019-12-02 07:00:00 8.6 11 Noroeste 20 Noroeste 0.2 -- -- 97
2019-12-02 06:00:00 8.7 14 Noroeste 21 Noroeste 0 -- -- 97
2019-12-02 05:00:00 8.5 12 Noroeste 20 Norte 0 -- -- 97
2019-12-02 04:00:00 9.1 8 Noroeste 17 Norte 0 -- -- 97
2019-12-02 03:00:00 9.2 11 Noroeste 23 Noroeste 0 -- -- 98
2019-12-02 02:00:00 10 13 Noroeste 20 Noroeste 0 -- -- 99
2019-12-02 01:00:00 10.3 10 Noroeste 18 Noroeste 0 -- -- 99
2019-12-02 00:00:00 10.5 11 Noroeste 20 Norte 0.6 -- -- 98
2019-12-01 23:00:00 10.5 13 Noroeste 22 Noroeste 0 -- -- 97
2019-12-01 22:00:00 10.5 10 Oeste 25 Noroeste 0.6 -- -- 96
2019-12-01 21:00:00 11.3 14 Oeste 27 Oeste 0 -- -- 89
2019-12-01 20:00:00 11.6 18 Noroeste 35 Noroeste 0 -- -- 88
2019-12-01 19:00:00 11.6 6 Oeste 28 Oeste 0 -- -- 93
2019-12-01 18:00:00 12 18 Oeste 35 Oeste 0.6 -- -- 91
2019-12-01 17:00:00 13 11 Oeste 36 Oeste 0.4 -- -- 84
2019-12-01 16:00:00 15 17 Oeste 36 Oeste 0 -- -- 71
2019-12-01 15:00:00 14.8 17 Oeste 31 Oeste 0 -- -- 74
2019-12-01 14:00:00 13.4 13 Oeste 28 Sudoeste 0.2 -- -- 84
2019-12-01 13:00:00 12.6 14 Oeste 28 Oeste 0 -- -- 89
2019-12-01 12:00:00 12.8 15 Oeste 27 Oeste 0 -- -- 92
2019-12-01 11:00:00 12.4 14 Sudoeste 22 Oeste 0 -- -- 91
2019-12-01 10:00:00 11.1 11 Sudoeste 17 Oeste 0 -- -- 94
2019-12-01 09:00:00 10.3 6 Sudoeste 20 Oeste 0 -- -- 97
2019-12-01 08:00:00 10.3 9 Oeste 14 Oeste 0 -- -- 100
2019-12-01 07:00:00 10.2 7 Sudoeste 12 Sudoeste 0 -- -- 100
2019-12-01 06:00:00 10.8 4 Oeste 12 Oeste 0 -- -- 100
2019-12-01 05:00:00 11.1 6 Oeste 11 Oeste 0 -- -- 100
2019-12-01 04:00:00 11.2 4 Oeste 12 Oeste 0 -- -- 100
2019-12-01 03:00:00 11 7 Oeste 17 Noroeste 0 -- -- 100
2019-12-01 02:00:00 11.2 11 Noroeste 21 Noroeste 0 -- -- 100
2019-12-01 01:00:00 11.8 13 Noroeste 22 Noroeste 0 -- -- 100
2019-12-01 00:00:00 11.8 5 Noroeste 14 Noroeste 0.2 -- -- 100
2019-11-30 23:00:00 11.9 8 Noroeste 15 Oeste 0 -- -- 99
2019-11-30 22:00:00 12.6 7 Oeste 25 Noroeste 0 -- -- 98
2019-11-30 21:00:00 13.7 17 Noroeste 32 Noroeste 0.8 -- -- 95
2019-11-30 20:00:00 14.7 13 Sur 19 Sur 0 -- -- 86
2019-11-30 19:00:00 15 5 Sudoeste 17 Sur 0 -- -- 86
2019-11-30 18:00:00 15.6 15 Sudoeste 20 Sur 0 -- -- 82
2019-11-30 17:00:00 16.7 10 Sudoeste 21 Oeste 0 -- -- 73
2019-11-30 16:00:00 16.7 10 Oeste 18 Oeste 0 -- -- 73
2019-11-30 15:00:00 16.4 8 Oeste 18 Oeste 0 -- -- 75
2019-11-30 14:00:00 16.5 5 Oeste 15 Oeste 0 -- -- 73
2019-11-30 13:00:00 15.8 3 Oeste 13 Noroeste 0 -- -- 82
2019-11-30 12:00:00 15.5 6 Noroeste 9 Noroeste 0 -- -- 86
2019-11-30 11:00:00 14.8 0 Calma 6 Noroeste 0 -- -- 88
2019-11-30 10:00:00 13 4 Oeste 10 Noroeste 0 -- -- 93
2019-11-30 09:00:00 11.5 6 Noroeste 9 Noroeste 0 -- -- 97
2019-11-30 08:00:00 11.1 8 Noroeste 9 Noroeste 0 -- -- 96
2019-11-30 07:00:00 10.9 8 Noroeste 10 Noroeste 0 -- -- 98
2019-11-30 06:00:00 10.3 8 Noroeste 12 Noroeste 0 -- -- 97
2019-11-30 05:00:00 11 9 Noroeste 12 Noroeste 0 -- -- 95
2019-11-30 04:00:00 11.7 4 Noroeste 9 Noroeste 0 -- -- 91
2019-11-30 03:00:00 11.8 7 Noroeste 10 Noroeste 0 -- -- 89
2019-11-30 02:00:00 11.6 7 Noroeste 13 Noroeste 0 -- -- 89
2019-11-30 01:00:00 12.2 9 Noroeste 14 Noroeste 0 -- -- 86
2019-11-30 00:00:00 12.7 7 Noroeste 10 Noroeste 0 -- -- 84
2019-11-29 23:00:00 13.2 6 Noroeste 7 Noroeste 0 -- -- 82
2019-11-29 22:00:00 14.2 -- -- -- -- 0 -- -- 77
2019-11-29 21:00:00 14.2 3 Noroeste 8 Noroeste 0 -- -- 78
2019-11-29 20:00:00 14.3 7 Noroeste 8 Noroeste 0 -- -- 78
2019-11-29 19:00:00 15.1 3 Noroeste 6 Noroeste 0 -- -- 76
2019-11-29 18:00:00 16.4 3 Norte 11 Norte 0 -- -- 73
2019-11-29 17:00:00 17.1 6 Norte 13 Noroeste 0 -- -- 69
2019-11-29 16:00:00 17.4 6 Noroeste 13 Norte 0 -- -- 66
2019-11-29 15:00:00 17.2 8 Noroeste 14 Noroeste 0 -- -- 69
2019-11-29 14:00:00 17.1 6 Noroeste 14 Noroeste 0 -- -- 71
2019-11-29 13:00:00 16.7 7 Noroeste 13 Noroeste 0 -- -- 74
2019-11-29 12:00:00 16.3 4 Noroeste 10 Sudoeste 0 -- -- 80
2019-11-29 11:00:00 15.8 5 Sur 8 Sur 0 -- -- 85
2019-11-29 10:00:00 13.3 4 Este 7 Este 0 -- -- 89
2019-11-29 09:00:00 11.1 4 Este 6 Sudeste 0 -- -- 99
2019-11-29 08:00:00 10.5 5 Este 7 Este 0 -- -- 99
2019-11-29 07:00:00 11.3 4 Este 5 Este 0 -- -- 98
2019-11-29 06:00:00 11.6 4 Este 5 Este 0 -- -- 98
2019-11-29 05:00:00 11.5 4 Nordeste 5 Este 0 -- -- 98
2019-11-29 04:00:00 10.7 4 Nordeste 6 Norte 0 -- -- 97
2019-11-29 03:00:00 11 4 Nordeste 5 Este 0 -- -- 96
2019-11-29 02:00:00 11 2 Nordeste 5 Nordeste 0 -- -- 95
2019-11-29 01:00:00 11.6 3 Nordeste 6 Nordeste 0 -- -- 93
2019-11-29 00:00:00 11.9 2 Noroeste 4 Oeste 0 -- -- 93
2019-11-28 23:00:00 12 0 Calma 10 Sudoeste 0 -- -- 92
2019-11-28 22:00:00 12.7 10 Sudoeste 14 Sudoeste 0 -- -- 89
2019-11-28 21:00:00 13.1 8 Sudoeste 18 Sudoeste 0 -- -- 85
2019-11-28 20:00:00 13.6 17 Sur 21 Sur 0 -- -- 82
2019-11-28 19:00:00 14.7 15 Sur 20 Sur 0 -- -- 83
2019-11-28 18:00:00 16.6 5 Oeste 18 Sur 0 -- -- 74
2019-11-28 17:00:00 17.2 5 Noroeste 13 Noroeste 0 -- -- 67
2019-11-28 16:00:00 17.4 6 Sudoeste 12 Sudoeste 0 -- -- 66
2019-11-28 15:00:00 17.2 8 Sur 16 Oeste 0 -- -- 69
2019-11-28 14:00:00 16.3 8 Sudoeste 18 Sur 0 -- -- 73
2019-11-28 13:00:00 17.3 7 Sudoeste 17 Sudoeste 0 -- -- 71
2019-11-28 12:00:00 16.3 7 Sur 10 Sudoeste 0 -- -- 77
2019-11-28 11:00:00 15.1 2 Nordeste 5 Noroeste 0 -- -- 83
2019-11-28 10:00:00 14.8 0 Calma 4 Sudeste 0 -- -- 84
2019-11-28 09:00:00 11.9 0 Calma 5 Norte 0 -- -- 94
2019-11-28 08:00:00 11.5 0 Calma 15 Noroeste 0 -- -- 95
2019-11-28 07:00:00 11.5 3 Este 8 Norte 0 -- -- 95
2019-11-28 06:00:00 12.6 3 Oeste 9 Oeste 0 -- -- 92
2019-11-28 05:00:00 12.5 5 Oeste 9 Oeste 0 -- -- 92
2019-11-28 04:00:00 12.8 5 Oeste 11 Oeste 0 -- -- 89
2019-11-28 03:00:00 12.5 3 Sudoeste 8 Noroeste 0 -- -- 90
2019-11-28 02:00:00 12.2 6 Noroeste 7 Noroeste 0 -- -- 90
2019-11-28 01:00:00 12.5 5 Oeste 11 Oeste 0 -- -- 86
2019-11-28 00:00:00 13.2 5 Oeste 11 Oeste 0 -- -- 84
2019-11-27 23:00:00 13.6 5 Sudoeste 11 Oeste 0 -- -- 82
2019-11-27 22:00:00 13.8 5 Sudoeste 12 Oeste 0 -- -- 80
2019-11-27 21:00:00 14.1 6 Oeste 13 Oeste 0 -- -- 77
2019-11-27 20:00:00 14.7 7 Noroeste 14 Oeste 0 -- -- 76
2019-11-27 19:00:00 14.9 9 Oeste 18 Oeste 0 -- -- 72
2019-11-27 18:00:00 15.4 9 Oeste 21 Noroeste 0 -- -- 72
2019-11-27 17:00:00 16.5 9 Noroeste 17 Oeste 0 -- -- 73
2019-11-27 16:00:00 16 6 Oeste 17 Noroeste 0 -- -- 78
2019-11-27 15:00:00 15.5 12 Noroeste 23 Noroeste 0 -- -- 79
2019-11-27 14:00:00 15.6 14 Oeste 22 Oeste 0 -- -- 78
2019-11-27 06:00:00 12.9 7 Noroeste 17 Noroeste 0 -- -- 97
2019-11-27 05:00:00 13.2 12 Noroeste 19 Noroeste 0 -- -- 98
2019-11-27 04:00:00 13.9 9 Oeste 19 Noroeste 0 -- -- 97
2019-11-27 03:00:00 13.8 10 Oeste 16 Oeste 0 -- -- 98
2019-11-27 02:00:00 13.7 7 Oeste 21 Oeste 0 -- -- 97
2019-11-27 01:00:00 14.3 13 Oeste 27 Oeste 0 -- -- 95
2019-11-27 00:00:00 14.3 14 Oeste 21 Noroeste 0 -- -- 97
2019-11-26 23:00:00 14.9 10 Oeste 25 Oeste 0 -- -- 97
2019-11-26 22:00:00 15.3 15 Oeste 23 Sudoeste 0.4 -- -- 98
2019-11-26 21:00:00 15.4 18 Sudoeste 31 Sudoeste 0.8 -- -- 99
2019-11-26 20:00:00 15.7 20 Sudoeste 26 Sudoeste 0 -- -- 95
2019-11-26 19:00:00 16 18 Sur 28 Sur 0 -- -- 92
2019-11-26 18:00:00 16.8 15 Sudoeste 30 Sudoeste 0 -- -- 87
2019-11-26 17:00:00 17.9 16 Sudoeste 28 Sudoeste 0 -- -- 77
2019-11-26 16:00:00 18.2 20 Sudoeste 33 Sudoeste 0 -- -- 82
2019-11-26 15:00:00 18.7 17 Sudoeste 37 Sur 0 -- -- 83
2019-11-26 14:00:00 17.9 23 Sur 34 Sudoeste 0 -- -- 83
2019-11-26 13:00:00 17 13 Sudoeste 26 Sur 0 -- -- 89
2019-11-26 12:00:00 15.4 12 Sur 19 Sudoeste 0 -- -- 100
2019-11-26 11:00:00 14.7 12 Sur 19 Sur 0 -- -- 100
2019-11-26 10:00:00 14.4 10 Sur 15 Sur 0 -- -- 100
2019-11-26 09:00:00 14.1 13 Sur 18 Sur 0 -- -- 100
2019-11-26 08:00:00 14 8 Sur 13 Sur 0.2 -- -- 100
2019-11-26 07:00:00 14 9 Sur 17 Sur 0.2 -- -- 99
2019-11-26 06:00:00 14.3 8 Sur 13 Sur 0.2 -- -- 98
2019-11-26 05:00:00 14.1 10 Sur 13 Sur 0 -- -- 94
2019-11-26 04:00:00 15 8 Sur 12 Sur 0 -- -- 89
2019-11-26 03:00:00 15 3 Sudoeste 6 Sur 0 -- -- 90
2019-11-26 02:00:00 14.5 4 Sudoeste 8 Oeste 0 -- -- 92
2019-11-26 01:00:00 14.6 6 Oeste 8 Oeste 0 -- -- 92
2019-11-26 00:00:00 14.1 3 Sudoeste 7 Noroeste 0 -- -- 92
2019-11-25 23:00:00 14.2 4 Oeste 9 Oeste 0 -- -- 91
2019-11-25 22:00:00 14.8 6 Noroeste 14 Oeste 0 -- -- 87
2019-11-25 21:00:00 15.6 7 Noroeste 11 Noroeste 0 -- -- 85
2019-11-25 20:00:00 16.7 7 Noroeste 18 Oeste 0 -- -- 81
2019-11-25 19:00:00 17.4 9 Oeste 14 Oeste 0 -- -- 80
2019-11-25 18:00:00 17.7 6 Oeste 15 Oeste 0 -- -- 85
2019-11-25 17:00:00 18 9 Oeste 22 Noroeste 0.2 -- -- 83
2019-11-25 16:00:00 18.2 15 Noroeste 23 Oeste 0 -- -- 80
2019-11-25 15:00:00 17.4 15 Noroeste 23 Noroeste 0 -- -- 92
2019-11-25 14:00:00 16.4 8 Noroeste 18 Noroeste 0.8 -- -- 99
2019-11-25 13:00:00 16.3 7 Oeste 18 Sudoeste 0.4 -- -- 99
2019-11-25 12:00:00 16.1 9 Sudoeste 21 Sudoeste 0 -- -- 98
2019-11-25 11:00:00 15.5 15 Sudoeste 25 Sudoeste 0.2 -- -- 100
2019-11-25 10:00:00 14.5 11 Sudoeste 19 Oeste 0 -- -- 100
2019-11-25 09:00:00 13.6 9 Sudoeste 17 Sudoeste 0 -- -- 100
2019-11-25 08:00:00 13.3 9 Sudoeste 18 Sudoeste 0 -- -- 100
2019-11-25 07:00:00 12.9 14 Sudoeste 20 Sur 0 -- -- 100
2019-11-25 06:00:00 12.5 15 Sur 21 Sur 0 -- -- 99
2019-11-25 05:00:00 12.4 12 Sur 16 Sur 0 -- -- 98
2019-11-25 04:00:00 12 8 Sur 12 Sur 0 -- -- 97
2019-11-25 03:00:00 12 7 Sur 13 Sur 0 -- -- 97
2019-11-25 02:00:00 11.9 10 Sur 14 Sur 0.2 -- -- 97
2019-11-25 01:00:00 12.4 4 Sudoeste 8 Sudoeste 0 -- -- 94
2019-11-25 00:00:00 12.9 2 Sudoeste 10 Oeste 0 -- -- 88
2019-11-24 23:00:00 13 4 Oeste 10 Sudoeste 0 -- -- 87
2019-11-24 22:00:00 12.7 5 Oeste 13 Sur 0 -- -- 89
2019-11-24 21:00:00 12.5 8 Sudoeste 19 Sur 0 -- -- 91
2019-11-24 20:00:00 12.9 15 Sur 19 Sur 0 -- -- 88
2019-11-24 19:00:00 13.4 13 Sur 17 Sur 0 -- -- 85
2019-11-24 18:00:00 14.2 10 Sur 16 Sudoeste 0 -- -- 81
2019-11-24 17:00:00 14.9 10 Sudoeste 19 Sudoeste 0 -- -- 75
2019-11-24 16:00:00 15.4 7 Oeste 18 Oeste 0 -- -- 70
2019-11-24 15:00:00 15 10 Noroeste 21 Noroeste 0 -- -- 68
2019-11-24 14:00:00 15 12 Noroeste 20 Oeste 0 -- -- 65
2019-11-24 13:00:00 14.7 9 Noroeste 21 Noroeste 0 -- -- 70
2019-11-24 12:00:00 13.4 7 Noroeste 14 Noroeste 0 -- -- 78
2019-11-24 11:00:00 11.5 5 Oeste 9 Noroeste 0 -- -- 86
2019-11-24 10:00:00 9.8 0 Calma 6 Noroeste 0 -- -- 100
2019-11-24 09:00:00 7.1 5 Noroeste 8 Noroeste 0 -- -- 100
2019-11-24 08:00:00 6.3 7 Noroeste 14 Noroeste 0 -- -- 100
2019-11-24 07:00:00 6.4 11 Noroeste 19 Oeste 0 -- -- 99
2019-11-24 06:00:00 6.7 13 Noroeste 20 Noroeste 0 -- -- 99
2019-11-24 05:00:00 6.4 12 Noroeste 18 Noroeste 0 -- -- 97
2019-11-24 04:00:00 7.4 12 Noroeste 23 Noroeste 0 -- -- 94
2019-11-24 03:00:00 7.9 15 Noroeste 22 Noroeste 0 -- -- 92
2019-11-24 02:00:00 7.1 10 Noroeste 22 Noroeste 0 -- -- 94
2019-11-24 01:00:00 8.2 11 Noroeste 22 Noroeste 0 -- -- 89
2019-11-24 00:00:00 8.3 13 Noroeste 22 Noroeste 0 -- -- 89
2019-11-23 23:00:00 9 12 Noroeste 21 Noroeste 0 -- -- 87
2019-11-23 22:00:00 9.3 11 Noroeste 17 Noroeste 0 -- -- 85
2019-11-23 21:00:00 10.6 10 Noroeste 17 Noroeste 0 -- -- 81
2019-11-23 20:00:00 11.2 4 Oeste 11 Noroeste 0 -- -- 77
2019-11-23 19:00:00 12.2 6 Noroeste 22 Noroeste 0 -- -- 73
2019-11-23 18:00:00 13.7 14 Noroeste 30 Noroeste 0 -- -- 65
2019-11-23 17:00:00 14.4 13 Noroeste 33 Noroeste 0 -- -- 62
2019-11-23 16:00:00 14.7 21 Noroeste 33 Noroeste 0 -- -- 59
2019-11-23 15:00:00 14 18 Noroeste 40 Noroeste 0 -- -- 63
2019-11-23 14:00:00 14.6 21 Noroeste 41 Noroeste 0 -- -- 62
2019-11-23 13:00:00 14.1 17 Noroeste 37 Noroeste 0 -- -- 69
2019-11-23 12:00:00 13.4 21 Noroeste 39 Noroeste 0 -- -- 73
2019-11-23 11:00:00 12.2 23 Noroeste 35 Noroeste 0 -- -- 82
2019-11-23 10:00:00 10.7 20 Noroeste 32 Noroeste 0 -- -- 91
2019-11-23 09:00:00 9.7 13 Noroeste 24 Oeste 0 -- -- 93
2019-11-23 08:00:00 9.9 17 Noroeste 33 Noroeste 0 -- -- 90
2019-11-23 07:00:00 10.2 21 Noroeste 38 Noroeste 0.2 -- -- 94
2019-11-23 06:00:00 10.6 14 Noroeste 28 Noroeste 0 -- -- 95
2019-11-23 05:00:00 10.9 20 Noroeste 37 Oeste 0 -- -- 97
2019-11-23 04:00:00 11.1 26 Noroeste 46 Oeste 0.8 -- -- 95
2019-11-23 03:00:00 12.2 19 Oeste 37 Oeste 0 -- -- 89
2019-11-23 02:00:00 12.6 26 Oeste 45 Oeste 0 -- -- 86
2019-11-23 01:00:00 12.6 29 Oeste 45 Oeste 0 -- -- 85
2019-11-23 00:00:00 12.6 21 Oeste 38 Oeste 0 -- -- 89
2019-11-22 23:00:00 12.9 22 Oeste 43 Oeste 0 -- -- 89
2019-11-22 22:00:00 12.9 21 Oeste 44 Noroeste 0 -- -- 88
2019-11-22 21:00:00 13.7 26 Oeste 46 Noroeste 0 -- -- 88
2019-11-22 20:00:00 14 27 Oeste 46 Oeste 0 -- -- 90
2019-11-22 19:00:00 14 22 Oeste 47 Noroeste 0 -- -- 85
2019-11-22 18:00:00 14.4 28 Noroeste 49 Noroeste 0 -- -- 87
2019-11-22 17:00:00 14.7 24 Oeste 59 Oeste 1.2 -- -- 97
2019-11-22 16:00:00 17.1 27 Oeste 55 Sudoeste 0.8 -- -- 93
2019-11-22 15:00:00 16.7 24 Sudoeste 44 Sudoeste 1.2 -- -- 95
2019-11-22 14:00:00 16 23 Sudoeste 35 Sudoeste 0.6 -- -- 99
2019-11-22 13:00:00 15.4 19 Sudoeste 42 Sudoeste 1 -- -- 100
2019-11-22 12:00:00 15.1 24 Sudoeste 44 Sudoeste 0 -- -- 100
2019-11-22 11:00:00 14 22 Sudoeste 35 Sudoeste 1.2 -- -- 100
2019-11-22 10:00:00 13.5 22 Sudoeste 36 Sur 0.2 -- -- 100
2019-11-22 09:00:00 12.7 21 Sur 30 Sur 0 -- -- 100
2019-11-22 08:00:00 12.1 17 Sur 26 Sur 0.2 -- -- 100
2019-11-22 07:00:00 11.9 12 Sur 18 Sudeste 1.4 -- -- 100
2019-11-22 06:00:00 11.9 7 Sur 16 Sur 0.4 -- -- 100
2019-11-22 05:00:00 11.5 9 Sur 15 Sudeste 0 -- -- 100
2019-11-22 04:00:00 11.2 9 Sur 13 Sudeste 0 -- -- 100
2019-11-22 03:00:00 11 9 Sur 14 Sur 0 -- -- 100
2019-11-22 02:00:00 11.2 8 Sur 14 Sur 0 -- -- 100
2019-11-22 01:00:00 10.9 4 Sudoeste 8 Sudoeste 0.2 -- -- 100
2019-11-22 00:00:00 11 2 Sur 8 Sudoeste 0 -- -- 100
2019-11-21 23:00:00 11.4 8 Sur 13 Sur 0 -- -- 100
2019-11-21 22:00:00 11.9 11 Sudoeste 16 Sur 0 -- -- 100
2019-11-21 21:00:00 12.1 12 Sur 19 Sur 0 -- -- 99
2019-11-21 20:00:00 12.7 11 Sur 15 Sur 0 -- -- 96
2019-11-21 19:00:00 13.2 8 Sur 13 Sur 0 -- -- 88
2019-11-21 18:00:00 14.6 8 Sudoeste 14 Sudoeste 0 -- -- 78
2019-11-21 17:00:00 15.2 5 Oeste 19 Oeste 0 -- -- 81
2019-11-21 16:00:00 15.2 11 Sudoeste 17 Sudoeste 0 -- -- 80
2019-11-21 15:00:00 14.7 9 Oeste 22 Oeste 0 -- -- 85
2019-11-21 14:00:00 14.1 10 Oeste 22 Noroeste 0 -- -- 92
2019-11-21 13:00:00 13.7 9 Oeste 17 Sudoeste 0.2 -- -- 100
2019-11-21 12:00:00 12.7 10 Sur 15 Sur 0 -- -- 100
2019-11-21 11:00:00 11.9 11 Sur 17 Sur 0 -- -- 100
2019-11-21 10:00:00 11.5 13 Sur 21 Sur 0 -- -- 100
2019-11-21 09:00:00 11.1 9 Sur 14 Sur 0 -- -- 100
2019-11-21 08:00:00 -- -- -- -- -- -- -- -- --
2019-11-21 07:00:00 -- -- -- -- -- -- -- -- --
2019-11-21 06:00:00 -- -- -- -- -- -- -- -- --
2019-11-21 05:00:00 -- -- -- -- -- -- -- -- --
2019-11-21 04:00:00 -- -- -- -- -- -- -- -- --
2019-11-21 03:00:00 -- -- -- -- -- -- -- -- --
2019-11-21 02:00:00 -- -- -- -- -- -- -- -- --
2019-11-21 01:00:00 -- -- -- -- -- -- -- -- --
2019-11-21 00:00:00 -- -- -- -- -- -- -- -- --
2019-11-20 23:00:00 -- -- -- -- -- -- -- -- --
2019-11-20 22:00:00 11.1 5 Sudoeste 9 Sudoeste 0.4 -- -- 95
2019-11-20 21:00:00 11.3 7 Sudoeste 12 Sudoeste 0 -- -- 96
2019-11-20 20:00:00 11.8 8 Sudoeste 22 Sur 0 -- -- 97
2019-11-20 19:00:00 12 16 Sur 22 Sur 0.2 -- -- 94
2019-11-20 18:00:00 12.3 9 Sur 15 Sur 0 -- -- 90
2019-11-20 17:00:00 13.2 6 Este 10 Sudeste 0 -- -- 87
2019-11-20 16:00:00 13 6 Este 12 Nordeste 0 -- -- 86
2019-11-20 15:00:00 12.6 4 Este 11 Este 0 -- -- 90
2019-11-20 14:00:00 11.2 8 Este 14 Sudeste 0 -- -- 98
2019-11-20 13:00:00 10.2 11 Sur 17 Sudeste 0 -- -- 100
2019-11-20 12:00:00 9.3 13 Sudeste 29 Sur 0 -- -- 100
2019-11-20 11:00:00 8.6 9 Sudeste 21 Este 0.2 -- -- 99
2019-11-20 10:00:00 8.1 12 Este 25 Este 0.2 -- -- 98
2019-11-20 09:00:00 8.1 17 Este 28 Este 2.4 -- -- 98
2019-11-20 08:00:00 8.3 10 Sudeste 26 Sudeste 0 -- -- 98
2019-11-20 07:00:00 8.5 12 Sudeste 32 Sudeste 0.4 -- -- 96
2019-11-20 06:00:00 8.8 17 Sudeste 30 Sudeste 1.2 -- -- 94
2019-11-20 05:00:00 9.6 16 Sudeste 25 Sudeste 0 -- -- 92
2019-11-20 04:00:00 9.8 13 Sur 19 Sur 0 -- -- 91
2019-11-20 03:00:00 10 13 Sur 18 Sur 0 -- -- 92
2019-11-20 02:00:00 10.3 12 Sur 14 Sur 0 -- -- 81
2019-11-20 01:00:00 10.3 9 Sur 14 Sur 0 -- -- 80
2019-11-20 00:00:00 10.6 5 Sudoeste 7 Sur 0 -- -- 72
2019-11-19 23:00:00 10.4 3 Sudoeste 4 Sudoeste 0 -- -- 72
2019-11-19 22:00:00 10.6 2 Sudoeste 8 Sudoeste 0 -- -- 70
2019-11-19 21:00:00 11.3 5 Sudoeste 12 Sudoeste 0 -- -- 68
2019-11-19 20:00:00 11.5 6 Oeste 12 Oeste 0 -- -- 67
2019-11-19 19:00:00 12.6 9 Sudoeste 15 Sudoeste 0 -- -- 61
2019-11-19 18:00:00 13.7 5 Noroeste 9 Oeste 0 -- -- 46
2019-11-19 17:00:00 14.5 4 Noroeste 14 Noroeste 0 -- -- 44
2019-11-19 16:00:00 15.4 5 Noroeste 13 Noroeste 0 -- -- 50
2019-11-19 15:00:00 14.9 4 Nordeste 15 Oeste 0 -- -- 54
2019-11-19 14:00:00 13.9 5 Oeste 13 Sudoeste 0 -- -- 59
2019-11-19 13:00:00 12.7 2 Nordeste 9 Noroeste 0 -- -- 71
2019-11-19 12:00:00 11.9 2 Sudoeste 6 Oeste 0 -- -- 72
2019-11-19 11:00:00 10 0 Calma 3 Nordeste 0 -- -- 79
2019-11-19 10:00:00 6.8 0 Calma 5 Oeste 0 -- -- 94
2019-11-19 09:00:00 6.1 3 Sudoeste 9 Noroeste 0 -- -- 95
2019-11-19 08:00:00 5.7 3 Oeste 11 Oeste 0 -- -- 95
2019-11-19 07:00:00 5.7 5 Oeste 12 Oeste 0 -- -- 95
2019-11-19 06:00:00 5.9 4 Oeste 13 Noroeste 0 -- -- 93
2019-11-19 05:00:00 6.4 5 Oeste 10 Noroeste 0 -- -- 91
2019-11-19 04:00:00 6.6 5 Noroeste 12 Oeste 0 -- -- 90
2019-11-19 03:00:00 7.1 5 Noroeste 13 Oeste 0 -- -- 88
2019-11-19 02:00:00 7.5 8 Noroeste 13 Noroeste 0 -- -- 86
2019-11-19 01:00:00 8.3 5 Noroeste 8 Noroeste 0 -- -- 82
2019-11-19 00:00:00 9.2 5 Noroeste 14 Noroeste 0 -- -- 78
2019-11-18 23:00:00 9.5 8 Noroeste 13 Noroeste 0 -- -- 77
2019-11-18 22:00:00 9.6 7 Noroeste 10 Noroeste 0 -- -- 75
2019-11-18 21:00:00 10.6 5 Noroeste 10 Norte 0 -- -- 70
2019-11-18 20:00:00 10.8 6 Noroeste 12 Norte 0 -- -- 70
2019-11-18 19:00:00 11.6 6 Norte 15 Norte 0 -- -- 66
2019-11-18 18:00:00 13 12 Norte 23 Norte 0 -- -- 59
2019-11-18 17:00:00 14 13 Norte 27 Norte 0 -- -- 59
2019-11-18 16:00:00 14.3 13 Norte 27 Norte 0 -- -- 58
2019-11-18 15:00:00 13.8 17 Norte 28 Noroeste 0 -- -- 57
2019-11-18 14:00:00 13.1 14 Norte 26 Noroeste 0 -- -- 64
2019-11-18 13:00:00 12 18 Noroeste 27 Noroeste 0 -- -- 70
2019-11-18 12:00:00 10.2 15 Noroeste 29 Noroeste 0 -- -- 80
2019-11-18 11:00:00 8.9 15 Norte 33 Norte 0 -- -- 88
2019-11-18 10:00:00 8.1 15 Noroeste 26 Noroeste 0 -- -- 94
2019-11-18 09:00:00 6.9 9 Norte 23 Noroeste 0 -- -- 98
2019-11-18 08:00:00 6.5 13 Noroeste 23 Noroeste 0 -- -- 97
2019-11-18 07:00:00 6.7 15 Noroeste 32 Noroeste 0 -- -- 96
2019-11-18 06:00:00 6.9 20 Noroeste 32 Noroeste 0 -- -- 95
2019-11-18 05:00:00 7.2 19 Noroeste 31 Noroeste 0 -- -- 94
2019-11-18 04:00:00 7.9 21 Noroeste 35 Noroeste 0 -- -- 89
2019-11-18 03:00:00 8.8 23 Noroeste 38 Noroeste 0 -- -- 82
2019-11-18 02:00:00 10.3 21 Noroeste 42 Noroeste 0 -- -- 82
2019-11-18 01:00:00 11.9 28 Noroeste 50 Noroeste 0.2 -- -- 86
2019-11-18 00:00:00 13.3 19 Sudoeste 41 Oeste 0 -- -- 92
2019-11-17 23:00:00 13.6 15 Sudoeste 32 Oeste 0 -- -- 90
2019-11-17 22:00:00 13.5 15 Oeste 27 Oeste 0 -- -- 90
2019-11-17 21:00:00 13.8 13 Oeste 26 Oeste 0 -- -- 86
2019-11-17 20:00:00 14.1 16 Oeste 33 Oeste 0 -- -- 83
2019-11-17 19:00:00 15 21 Oeste 36 Oeste 0 -- -- 75
2019-11-17 18:00:00 15.9 18 Oeste 36 Oeste 0 -- -- 74
2019-11-17 17:00:00 16 18 Oeste 35 Noroeste 0 -- -- 71
2019-11-17 16:00:00 17.5 17 Oeste 30 Oeste 0 -- -- 65
2019-11-17 15:00:00 18.1 17 Oeste 30 Noroeste 0 -- -- 64
2019-11-17 14:00:00 15.2 6 Noroeste 22 Oeste 0 -- -- 83
2019-11-17 13:00:00 12.8 3 Este 10 Este 0 -- -- 92
2019-11-17 12:00:00 10.7 4 Este 8 Este 0 -- -- 99
2019-11-17 11:00:00 9.3 3 Nordeste 14 Sudoeste 0 -- -- 100
2019-11-17 10:00:00 8.3 9 Sudoeste 17 Sudoeste 0.2 -- -- 100
2019-11-17 09:00:00 7.3 14 Sur 21 Sur 0.2 -- -- 99
2019-11-17 08:00:00 7.1 13 Sur 20 Sur 0.8 -- -- 99
2019-11-17 07:00:00 7.1 7 Sur 13 Sur 1 -- -- 96
2019-11-17 06:00:00 7.5 6 Sudoeste 10 Oeste 0 -- -- 88
2019-11-17 05:00:00 8 7 Oeste 8 Sudoeste 0 -- -- 81
2019-11-17 04:00:00 7 5 Oeste 9 Oeste 0 -- -- 84
2019-11-17 03:00:00 6.6 6 Oeste 14 Oeste 0 -- -- 86
2019-11-17 02:00:00 6.2 5 Oeste 11 Oeste 0 -- -- 87
2019-11-17 01:00:00 6.1 7 Oeste 17 Oeste 0 -- -- 82
2019-11-17 00:00:00 6.4 8 Noroeste 16 Oeste 0 -- -- 77
2019-11-16 23:00:00 7.3 9 Noroeste 14 Noroeste 0 -- -- 70
2019-11-16 22:00:00 8.1 8 Noroeste 16 Noroeste 0 -- -- 66
2019-11-16 21:00:00 8.6 9 Noroeste 15 Noroeste 0 -- -- 63
2019-11-16 20:00:00 9.6 6 Noroeste 13 Noroeste 0 -- -- 59
2019-11-16 19:00:00 10.4 8 Noroeste 17 Noroeste 0 -- -- 55
2019-11-16 18:00:00 12.8 12 Noroeste 23 Noroeste 0 -- -- 46
2019-11-16 17:00:00 13.6 14 Noroeste 25 Noroeste 0 -- -- 42
2019-11-16 16:00:00 13.8 10 Noroeste 28 Noroeste 0 -- -- 43
2019-11-16 15:00:00 13.1 14 Norte 24 Noroeste 0 -- -- 46
2019-11-16 14:00:00 12 13 Noroeste 28 Noroeste 0 -- -- 51
2019-11-16 13:00:00 10.1 17 Noroeste 28 Norte 0 -- -- 60
2019-11-16 12:00:00 8.4 18 Noroeste 27 Noroeste 0 -- -- 68
2019-11-16 11:00:00 6.8 15 Noroeste 24 Noroeste 0 -- -- 80
2019-11-16 10:00:00 4.6 13 Noroeste 19 Noroeste 0 -- -- 91
2019-11-16 09:00:00 2.5 10 Noroeste 17 Noroeste 0 -- -- 96
2019-11-16 08:00:00 2.8 12 Noroeste 26 Noroeste 0 -- -- 94
2019-11-16 07:00:00 2.6 14 Noroeste 23 Noroeste 0 -- -- 97
2019-11-16 06:00:00 2.5 12 Noroeste 20 Noroeste 0 -- -- 97
2019-11-16 05:00:00 2.6 9 Noroeste 15 Oeste 0 -- -- 96
2019-11-16 04:00:00 3.1 9 Noroeste 16 Noroeste 0 -- -- 93
2019-11-16 03:00:00 3.6 10 Noroeste 18 Noroeste 0 -- -- 91
2019-11-16 02:00:00 3.6 8 Noroeste 18 Noroeste 0 -- -- 90
2019-11-16 01:00:00 4.6 13 Noroeste 20 Noroeste 0 -- -- 84
2019-11-16 00:00:00 5.4 13 Noroeste 23 Noroeste 0 -- -- 79